createdAt,value
2023-05-30T00:00:33.942Z,15.50
2023-05-30T00:03:20.972Z,15.80
2023-05-30T00:05:47.642Z,15.40
2023-05-30T00:08:14.344Z,15.70
2023-05-30T00:10:41.065Z,15.20
2023-05-30T00:13:07.750Z,16.00
2023-05-30T00:15:34.388Z,14.60
2023-05-30T00:18:01.079Z,14.50
2023-05-30T00:20:30.339Z,15.50
2023-05-30T00:23:00.044Z,15.30
2023-05-30T00:25:26.891Z,15.10
2023-05-30T00:27:53.468Z,15.90
2023-05-30T00:30:20.231Z,15.10
2023-05-30T00:32:46.951Z,14.60
2023-05-30T00:35:13.582Z,15.90
2023-05-30T00:37:40.323Z,15.10
2023-05-30T00:40:08.253Z,14.90
2023-05-30T00:42:37.264Z,15.80
2023-05-30T00:45:04.457Z,15.20
2023-05-30T00:47:32.195Z,14.60
2023-05-30T00:49:59.677Z,16.30
2023-05-30T00:52:26.591Z,15.30
2023-05-30T00:54:53.709Z,15.90
2023-05-30T00:57:21.129Z,17.20
2023-05-30T00:59:48.959Z,18.90
2023-05-30T01:02:17.652Z,18.50
2023-05-30T01:04:44.339Z,17.70
2023-05-30T01:07:11.806Z,20.80
2023-05-30T01:09:38.848Z,19.00
2023-05-30T01:12:18.293Z,17.50
2023-05-30T01:14:58.283Z,16.70
2023-05-30T01:17:27.984Z,16.40
2023-05-30T01:20:06.322Z,16.50
2023-05-30T01:23:20.992Z,15.40
2023-05-30T01:26:00.449Z,14.90
2023-05-30T01:28:33.118Z,14.60
2023-05-30T01:31:01.664Z,14.60
2023-05-30T01:33:29.601Z,15.30
2023-05-30T01:35:56.393Z,15.00
2023-05-30T01:38:26.360Z,15.10
2023-05-30T01:40:59.518Z,15.40
2023-05-30T01:43:26.327Z,13.40
2023-05-30T01:46:08.572Z,14.20
2023-05-30T01:48:44.022Z,14.20
2023-05-30T01:51:21.115Z,13.60
2023-05-30T01:53:53.343Z,14.20
2023-05-30T01:56:21.743Z,15.10
2023-05-30T01:58:51.839Z,14.20
2023-05-30T02:01:20.548Z,14.60
2023-05-30T02:03:47.792Z,14.70
2023-05-30T02:06:14.402Z,13.80
2023-05-30T02:08:40.955Z,12.90
2023-05-30T02:11:07.533Z,13.40
2023-05-30T02:13:34.054Z,13.30
2023-05-30T02:16:00.774Z,13.90
2023-05-30T02:18:27.925Z,13.50
2023-05-30T02:20:55.684Z,13.80
2023-05-30T02:23:23.874Z,13.50
2023-05-30T02:25:51.321Z,12.80
2023-05-30T02:28:33.904Z,12.70
2023-05-30T02:31:01.807Z,12.10
2023-05-30T02:33:28.421Z,13.10
2023-05-30T02:35:55.294Z,11.90
2023-05-30T02:38:23.904Z,11.30
2023-05-30T02:40:52.406Z,12.30
2023-05-30T02:43:21.285Z,12.60
2023-05-30T02:45:49.007Z,12.20
2023-05-30T02:48:16.373Z,11.40
2023-05-30T02:50:43.056Z,12.20
2023-05-30T02:53:14.368Z,12.20
2023-05-30T02:55:42.957Z,12.00
2023-05-30T03:01:32.090Z,11.50
2023-05-30T03:03:59.999Z,10.70
2023-05-30T03:06:36.536Z,11.70
2023-05-30T03:09:11.661Z,12.00
2023-05-30T03:11:38.502Z,11.00
2023-05-30T03:14:04.996Z,11.20
2023-05-30T03:16:31.651Z,10.80
2023-05-30T03:18:59.480Z,11.60
2023-05-30T03:21:26.052Z,11.30
2023-05-30T03:23:52.950Z,11.00
2023-05-30T03:26:22.969Z,10.80
2023-05-30T03:28:49.795Z,10.80
2023-05-30T03:31:21.492Z,10.40
2023-05-30T03:33:48.588Z,10.50
2023-05-30T03:36:18.129Z,10.40
2023-05-30T03:38:45.039Z,10.10
2023-05-30T03:41:11.987Z,10.10
2023-05-30T03:43:38.623Z,9.90
2023-05-30T03:46:05.408Z,10.00
2023-05-30T03:48:32.156Z,9.90
2023-05-30T03:50:59.131Z,9.60
2023-05-30T03:53:26.151Z,9.10
2023-05-30T03:55:52.780Z,8.70
2023-05-30T03:58:19.345Z,9.10
2023-05-30T04:00:46.067Z,8.90
2023-05-30T04:03:12.745Z,8.40
2023-05-30T04:05:39.477Z,9.20
2023-05-30T04:08:06.283Z,9.00
2023-05-30T04:10:33.020Z,8.80
2023-05-30T04:13:00.742Z,8.40
2023-05-30T04:15:27.940Z,8.60
2023-05-30T04:17:55.203Z,7.90
2023-05-30T04:20:22.132Z,7.60
2023-05-30T04:22:48.946Z,8.20
2023-05-30T04:25:17.190Z,8.00
2023-05-30T04:27:50.016Z,8.00
2023-05-30T04:30:18.580Z,8.20
2023-05-30T04:32:45.720Z,7.90
2023-05-30T04:35:16.144Z,8.40
2023-05-30T04:37:45.800Z,8.20
2023-05-30T04:40:13.991Z,8.00
2023-05-30T04:42:41.582Z,8.30
2023-05-30T04:45:10.169Z,8.70
2023-05-30T04:47:39.090Z,8.90
2023-05-30T04:50:06.591Z,10.40
2023-05-30T04:52:34.061Z,9.00
2023-05-30T04:55:00.964Z,9.40
2023-05-30T04:57:40.813Z,8.10
2023-05-30T05:00:22.112Z,9.00
2023-05-30T05:02:48.965Z,8.60
2023-05-30T05:05:15.662Z,8.70
2023-05-30T05:07:42.930Z,7.70
2023-05-30T05:10:10.697Z,8.30
2023-05-30T05:12:37.550Z,8.10
2023-05-30T05:15:04.788Z,8.30
2023-05-30T05:17:45.843Z,8.20
2023-05-30T05:20:39.224Z,8.40
2023-05-30T05:26:36.147Z,8.20
2023-05-30T05:29:12.112Z,8.50
2023-05-30T05:38:39.096Z,9.00
2023-05-30T06:00:07.320Z,7.40
2023-05-30T06:17:52.907Z,6.90
2023-05-30T06:39:59.187Z,8.10
2023-05-30T06:43:51.641Z,8.10
2023-05-30T06:51:55.299Z,8.20
2023-05-30T07:25:27.357Z,8.40
2023-05-30T07:30:47.036Z,7.70
2023-05-30T08:13:14.817Z,11.60
2023-05-30T08:40:43.231Z,8.70
2023-05-30T08:56:10.865Z,9.80
2023-05-30T08:59:17.893Z,9.10
2023-05-30T09:02:36.931Z,10.00
2023-05-30T09:05:42.887Z,9.30
2023-05-30T09:08:25.599Z,9.70
2023-05-30T09:11:30.773Z,10.40
2023-05-30T09:14:07.292Z,12.00
2023-05-30T09:20:21.011Z,14.30
2023-05-30T09:23:22.236Z,12.10
2023-05-30T09:25:53.679Z,11.80
2023-05-30T09:28:35.321Z,12.10
2023-05-30T09:31:29.630Z,10.50
2023-05-30T09:37:52.026Z,10.90
2023-05-30T09:40:30.633Z,11.00
2023-05-30T09:46:51.839Z,11.70
2023-05-30T09:49:51.752Z,11.00
2023-05-30T09:52:25.175Z,9.60
2023-05-30T09:58:43.319Z,10.00
2023-05-30T10:01:30.261Z,10.70
2023-05-30T10:04:45.886Z,10.10
2023-05-30T10:09:59.961Z,10.10
2023-05-30T10:12:44.849Z,9.20
2023-05-30T10:16:16.768Z,9.50
2023-05-30T10:19:48.089Z,9.80
2023-05-30T10:26:46.816Z,8.50
2023-05-30T10:29:29.572Z,8.30
2023-05-30T10:32:00.060Z,8.60
2023-05-30T10:34:55.179Z,8.10
2023-05-30T10:37:22.173Z,10.50
2023-05-30T10:40:26.718Z,10.10
2023-05-30T10:43:17.972Z,11.50
2023-05-30T10:46:00.728Z,9.20
2023-05-30T10:48:54.108Z,8.50
2023-05-30T10:51:23.051Z,9.00
2023-05-30T10:53:55.603Z,9.00
2023-05-30T10:56:30.554Z,8.20
2023-05-30T10:58:58.367Z,7.50
2023-05-30T11:01:42.192Z,8.50
2023-05-30T11:04:15.863Z,6.40
2023-05-30T11:06:46.589Z,8.70
2023-05-30T11:09:18.256Z,8.40
2023-05-30T11:11:48.925Z,9.10
2023-05-30T11:14:15.749Z,8.90
2023-05-30T11:17:42.901Z,9.00
2023-05-30T11:20:52.644Z,7.10
2023-05-30T11:24:25.913Z,7.90
2023-05-30T11:27:09.303Z,7.30
2023-05-30T11:29:40.460Z,7.30
2023-05-30T11:32:21.999Z,7.50
2023-05-30T11:35:15.333Z,8.30
2023-05-30T11:37:46.491Z,7.80
2023-05-30T11:40:27.266Z,6.50
2023-05-30T11:43:22.848Z,7.40
2023-05-30T11:46:02.959Z,6.60
2023-05-30T11:51:39.797Z,7.70
2023-05-30T11:54:37.067Z,8.70
2023-05-30T11:57:56.554Z,7.20
2023-05-30T12:00:49.128Z,6.80
2023-05-30T12:03:17.799Z,8.20
2023-05-30T12:05:51.649Z,7.20
2023-05-30T12:08:53.268Z,7.00
2023-05-30T12:16:33.181Z,6.60
2023-05-30T12:19:15.200Z,7.40
2023-05-30T12:21:46.902Z,6.70
2023-05-30T12:24:14.346Z,7.10
2023-05-30T12:27:07.244Z,7.50
2023-05-30T12:29:37.181Z,7.10
2023-05-30T12:32:06.853Z,6.50
2023-05-30T12:35:11.669Z,6.30
2023-05-30T12:37:41.316Z,6.40
2023-05-30T12:40:16.457Z,6.70
2023-05-30T12:42:48.256Z,5.90
2023-05-30T12:45:28.446Z,6.90
2023-05-30T12:48:04.493Z,7.00
2023-05-30T12:50:31.703Z,6.10
2023-05-30T12:52:58.376Z,6.70
2023-05-30T12:55:25.332Z,7.80
2023-05-30T12:57:56.505Z,7.40
2023-05-30T13:00:23.256Z,7.00
2023-05-30T13:02:57.572Z,8.10
2023-05-30T13:05:24.428Z,7.00
2023-05-30T13:07:52.914Z,6.60
2023-05-30T13:10:20.012Z,7.50
2023-05-30T13:12:50.580Z,7.30
2023-05-30T13:15:28.002Z,7.30
2023-05-30T13:20:24.199Z,7.30
2023-05-30T13:22:51.227Z,7.50
2023-05-30T13:25:20.047Z,7.00
2023-05-30T13:27:49.059Z,7.50
2023-05-30T13:30:26.234Z,7.40
2023-05-30T13:33:04.496Z,7.80
2023-05-30T13:35:45.414Z,7.30
2023-05-30T13:38:15.051Z,7.00
2023-05-30T13:43:54.626Z,6.60
2023-05-30T13:46:26.485Z,6.80
2023-05-30T13:48:55.219Z,7.00
2023-05-30T13:51:22.743Z,6.80
2023-05-30T13:56:22.704Z,6.30
2023-05-30T13:58:54.951Z,6.20
2023-05-30T14:01:24.529Z,6.60
2023-05-30T14:03:53.120Z,7.00
2023-05-30T14:06:58.653Z,6.80
2023-05-30T14:09:53.848Z,7.70
2023-05-30T14:12:37.083Z,7.60
2023-05-30T14:15:47.052Z,7.10
2023-05-30T14:19:11.924Z,7.30
2023-05-30T14:22:00.677Z,6.20
2023-05-30T14:25:18.118Z,6.60
2023-05-30T14:28:48.867Z,6.90
2023-05-30T14:34:53.554Z,6.50
2023-05-30T14:42:13.853Z,6.70
2023-05-30T14:46:10.750Z,6.80
2023-05-30T14:50:33.037Z,6.50
2023-05-30T15:01:31.482Z,7.20
2023-05-30T15:04:35.582Z,7.50
2023-05-30T15:08:00.825Z,7.20
2023-05-30T15:40:19.932Z,6.60
2023-05-30T15:48:17.836Z,6.20
2023-05-30T15:51:13.982Z,7.00
2023-05-30T15:53:51.889Z,7.20
2023-05-30T15:56:37.852Z,6.70
2023-05-30T17:03:03.843Z,7.20
2023-05-30T17:05:40.190Z,7.30
2023-05-30T17:08:32.429Z,6.80
2023-05-30T17:17:01.667Z,7.00
2023-05-30T17:18:49.574Z,6.90
2023-05-30T19:42:14.459Z,9.60
2023-05-30T19:44:47.090Z,9.70
2023-05-30T19:47:55.146Z,9.50
2023-05-30T19:51:15.121Z,9.80
2023-05-30T19:53:54.712Z,10.40
2023-05-30T19:57:13.937Z,9.90
2023-05-30T19:59:37.761Z,9.80
2023-05-30T20:02:27.860Z,9.30
2023-05-30T20:05:41.653Z,9.90
2023-05-30T20:08:38.781Z,10.10
2023-05-30T20:11:12.061Z,9.80
2023-05-30T20:13:39.578Z,10.40
2023-05-30T20:20:01.962Z,12.20
2023-05-30T20:31:20.594Z,10.50
2023-05-30T20:37:17.832Z,10.60
2023-05-30T20:40:19.168Z,11.10
2023-05-30T20:44:00.386Z,11.00
2023-05-30T20:58:33.877Z,9.70
2023-05-30T21:07:03.022Z,10.20
2023-05-30T21:09:40.406Z,9.50
2023-05-30T21:12:14.861Z,9.60
2023-05-30T21:14:41.960Z,9.60
2023-05-30T21:17:17.767Z,9.80
2023-05-30T21:19:50.206Z,9.60
2023-05-30T21:22:19.473Z,10.60
2023-05-30T21:24:52.599Z,9.90
2023-05-30T21:27:44.264Z,10.30
2023-05-30T21:30:28.032Z,10.40
2023-05-30T21:33:58.629Z,9.80
2023-05-30T21:36:42.743Z,9.20
2023-05-30T21:42:08.037Z,9.00
2023-05-30T21:44:38.985Z,8.90
2023-05-30T21:47:06.548Z,8.90
2023-05-30T21:49:33.776Z,9.40
2023-05-30T21:52:08.301Z,9.60
2023-05-30T21:55:26.217Z,8.90
2023-05-30T21:57:56.046Z,8.20
2023-05-30T22:00:34.391Z,8.70
2023-05-30T22:03:04.375Z,9.30
2023-05-30T22:05:35.458Z,8.50
2023-05-30T22:08:07.432Z,9.30
2023-05-30T22:10:51.208Z,9.60
2023-05-30T22:13:20.618Z,9.80
2023-05-30T22:15:50.145Z,9.60
2023-05-30T22:18:17.518Z,8.90
2023-05-30T22:20:45.103Z,9.40
2023-05-30T22:23:12.129Z,8.90
2023-05-30T22:25:44.397Z,9.30
2023-05-30T22:28:11.301Z,9.40
2023-05-30T22:30:38.061Z,8.90
2023-05-30T22:33:07.356Z,9.70
2023-05-30T22:38:11.310Z,9.00
2023-05-30T22:40:38.427Z,9.10
2023-05-30T22:43:08.133Z,10.00
2023-05-30T22:45:36.739Z,10.30
2023-05-30T22:48:03.987Z,10.90
2023-05-30T22:50:31.114Z,11.00
2023-05-30T22:52:58.192Z,10.00
2023-05-30T22:55:28.270Z,10.30
2023-05-30T22:57:55.193Z,10.20
2023-05-30T23:00:22.594Z,9.90
2023-05-30T23:02:49.722Z,10.00
2023-05-30T23:05:20.780Z,8.90
2023-05-30T23:07:49.156Z,9.80
2023-05-30T23:10:19.902Z,10.50
2023-05-30T23:12:50.680Z,15.80
2023-05-30T23:15:20.030Z,9.50
2023-05-30T23:17:48.511Z,9.60
2023-05-30T23:20:18.219Z,9.20
2023-05-30T23:22:51.087Z,9.50
2023-05-30T23:25:24.677Z,10.10
2023-05-30T23:27:58.815Z,9.10
2023-05-30T23:30:29.045Z,9.30
2023-05-30T23:32:56.613Z,9.80
2023-05-30T23:35:27.039Z,9.20
2023-05-30T23:37:55.818Z,9.70
2023-05-30T23:40:22.844Z,9.10
2023-05-30T23:42:51.229Z,8.80
2023-05-30T23:45:18.462Z,9.10
2023-05-30T23:47:45.993Z,9.10
2023-05-30T23:50:15.415Z,8.80
2023-05-30T23:52:42.724Z,9.10
2023-05-30T23:55:12.625Z,8.80
2023-05-30T23:57:49.106Z,9.10
